createdAt,value
2023-03-28T00:00:20.490Z,2.25
2023-03-28T00:01:22.018Z,2.29
2023-03-28T00:02:24.476Z,2.26
2023-03-28T00:03:29.280Z,2.29
2023-03-28T00:04:31.861Z,2.33
2023-03-28T00:05:33.472Z,2.28
2023-03-28T00:06:36.011Z,2.25
2023-03-28T00:07:38.377Z,2.29
2023-03-28T00:08:41.685Z,2.11
2023-03-28T00:09:43.397Z,2.20
2023-03-28T00:10:46.483Z,2.24
2023-03-28T00:11:48.388Z,2.27
2023-03-28T00:12:50.913Z,2.20
2023-03-28T00:13:57.997Z,2.13
2023-03-28T00:15:01.000Z,2.16
2023-03-28T00:16:06.375Z,2.18
2023-03-28T00:17:09.192Z,2.25
2023-03-28T00:18:11.713Z,2.34
2023-03-28T00:19:18.032Z,2.35
2023-03-28T00:20:19.962Z,2.52
2023-03-28T00:21:25.044Z,2.45
2023-03-28T00:22:30.624Z,2.27
2023-03-28T00:23:33.938Z,2.29
2023-03-28T00:24:38.783Z,2.29
2023-03-28T00:25:41.988Z,2.23
2023-03-28T00:26:45.157Z,2.44
2023-03-28T00:27:47.807Z,2.46
2023-03-28T00:28:49.361Z,2.48
2023-03-28T00:29:51.995Z,2.48
2023-03-28T00:30:53.604Z,2.53
2023-03-28T00:31:56.650Z,2.57
2023-03-28T00:32:58.719Z,2.60
2023-03-28T00:34:01.198Z,2.65
2023-03-28T00:35:04.768Z,2.66
2023-03-28T00:36:10.354Z,2.67
2023-03-28T00:37:17.257Z,2.67
2023-03-28T00:38:18.852Z,2.74
2023-03-28T00:39:21.628Z,2.80
2023-03-28T00:40:24.114Z,2.76
2023-03-28T00:41:31.363Z,2.63
2023-03-28T00:42:32.967Z,2.66
2023-03-28T00:43:40.896Z,2.64
2023-03-28T00:44:48.014Z,2.61
2023-03-28T00:46:02.458Z,2.66
2023-03-28T00:47:17.482Z,2.76
2023-03-28T00:48:19.973Z,2.71
2023-03-28T00:49:25.099Z,2.58
2023-03-28T00:50:32.379Z,2.73
2023-03-28T00:51:37.953Z,2.74
2023-03-28T00:52:44.884Z,2.74
2023-03-28T00:53:47.483Z,2.86
2023-03-28T00:54:50.048Z,2.70
2023-03-28T00:55:57.288Z,2.62
2023-03-28T00:57:03.177Z,2.62
2023-03-28T00:58:10.010Z,2.70
2023-03-28T00:59:16.684Z,2.73
2023-03-28T01:00:19.183Z,2.85
2023-03-28T01:01:22.000Z,2.76
2023-03-28T01:02:23.752Z,2.77
2023-03-28T01:03:30.490Z,2.72
2023-03-28T01:04:36.846Z,2.73
2023-03-28T01:05:41.967Z,2.72
2023-03-28T01:06:46.365Z,2.68
2023-03-28T01:07:52.470Z,2.60
2023-03-28T01:08:54.604Z,2.54
2023-03-28T01:09:57.611Z,2.49
2023-03-28T01:10:59.593Z,2.46
2023-03-28T01:12:02.486Z,2.53
2023-03-28T01:13:05.580Z,2.46
2023-03-28T01:14:13.357Z,2.50
2023-03-28T01:15:15.255Z,2.55
2023-03-28T01:16:20.763Z,2.42
2023-03-28T01:17:22.313Z,2.55
2023-03-28T01:18:25.033Z,2.48
2023-03-28T01:19:37.581Z,2.46
2023-03-28T01:21:21.845Z,2.42
2023-03-28T01:22:41.146Z,2.61
2023-03-28T01:24:23.178Z,2.78
2023-03-28T01:25:48.885Z,2.66
2023-03-28T01:26:55.454Z,2.78
2023-03-28T01:28:05.414Z,2.68
2023-03-28T01:29:44.778Z,2.56
2023-03-28T01:31:08.872Z,2.40
2023-03-28T01:32:44.782Z,2.52
2023-03-28T01:34:22.273Z,2.54
2023-03-28T01:36:07.539Z,2.73
2023-03-28T01:37:23.662Z,2.67
2023-03-28T01:38:32.125Z,2.58
2023-03-28T01:39:45.102Z,2.57
2023-03-28T01:40:55.102Z,2.54
2023-03-28T01:42:04.521Z,2.56
2023-03-28T01:43:18.201Z,2.55
2023-03-28T01:44:31.820Z,2.52
2023-03-28T01:45:45.954Z,2.44
2023-03-28T01:47:00.235Z,2.57
2023-03-28T01:48:07.232Z,2.57
2023-03-28T01:49:15.387Z,2.66
2023-03-28T01:50:23.211Z,2.74
2023-03-28T01:51:35.614Z,2.66
2023-03-28T01:52:46.637Z,2.76
2023-03-28T01:53:57.104Z,2.73
2023-03-28T01:55:07.111Z,2.81
2023-03-28T01:56:15.620Z,2.67
2023-03-28T01:57:23.797Z,2.57
2023-03-28T01:58:34.967Z,2.65
2023-03-28T01:59:41.236Z,2.63
2023-03-28T02:00:47.958Z,2.59
2023-03-28T02:01:56.117Z,2.61
2023-03-28T02:03:03.180Z,2.66
2023-03-28T02:04:20.384Z,2.60
2023-03-28T02:05:26.058Z,2.70
2023-03-28T02:06:30.740Z,2.62
2023-03-28T02:07:34.305Z,2.59
2023-03-28T02:08:41.061Z,2.63
2023-03-28T02:09:45.727Z,2.61
2023-03-28T02:10:49.692Z,2.59
2023-03-28T02:11:57.797Z,2.60
2023-03-28T02:13:03.859Z,2.67
2023-03-28T02:14:11.432Z,2.58
2023-03-28T02:15:16.342Z,2.59
2023-03-28T02:16:22.278Z,2.58
2023-03-28T02:17:27.778Z,2.48
2023-03-28T02:18:35.159Z,2.56
2023-03-28T02:19:38.537Z,2.58
2023-03-28T02:20:43.759Z,2.58
2023-03-28T02:21:52.310Z,2.53
2023-03-28T02:23:00.399Z,2.55
2023-03-28T02:24:03.661Z,2.45
2023-03-28T02:25:07.209Z,2.46
2023-03-28T02:26:09.695Z,2.44
2023-03-28T02:27:12.252Z,2.45
2023-03-28T02:28:14.630Z,2.47
2023-03-28T02:29:17.993Z,2.34
2023-03-28T02:30:21.133Z,2.39
2023-03-28T02:31:24.821Z,2.33
2023-03-28T02:32:26.310Z,2.38
2023-03-28T02:33:37.595Z,2.38
2023-03-28T02:34:39.165Z,2.29
2023-03-28T02:35:51.442Z,2.31
2023-03-28T02:37:11.862Z,2.33
2023-03-28T02:38:23.127Z,2.35
2023-03-28T02:39:39.327Z,2.39
2023-03-28T02:40:53.392Z,2.29
2023-03-28T02:42:12.965Z,2.37
2023-03-28T02:43:42.382Z,2.33
2023-03-28T02:45:09.907Z,2.38
2023-03-28T02:46:29.888Z,2.40
2023-03-28T02:47:36.496Z,2.34
2023-03-28T02:48:55.139Z,2.34
2023-03-28T02:50:13.931Z,2.34
2023-03-28T02:51:30.165Z,2.36
2023-03-28T02:52:51.949Z,2.39
2023-03-28T02:54:02.931Z,2.30
2023-03-28T02:55:16.921Z,2.26
2023-03-28T02:56:26.712Z,2.20
2023-03-28T02:57:33.848Z,2.28
2023-03-28T02:58:41.088Z,2.32
2023-03-28T02:59:47.683Z,2.49
2023-03-28T03:00:50.204Z,2.51
2023-03-28T03:01:53.223Z,2.55
2023-03-28T03:02:54.778Z,2.47
2023-03-28T03:03:58.408Z,2.45
2023-03-28T03:05:01.738Z,2.39
2023-03-28T03:06:04.436Z,2.25
2023-03-28T03:07:08.957Z,2.30
2023-03-28T03:08:11.737Z,2.34
2023-03-28T03:09:13.302Z,2.47
2023-03-28T03:10:17.982Z,2.50
2023-03-28T03:11:22.675Z,2.36
2023-03-28T03:12:25.262Z,2.35
2023-03-28T03:13:26.879Z,2.36
2023-03-28T03:14:29.316Z,2.39
2023-03-28T03:15:30.930Z,2.41
2023-03-28T03:16:34.438Z,2.34
2023-03-28T03:17:36.756Z,2.31
2023-03-28T03:18:39.392Z,2.33
2023-03-28T03:19:43.141Z,2.32
2023-03-28T03:20:46.583Z,2.38
2023-03-28T03:21:49.567Z,2.33
2023-03-28T03:22:52.143Z,2.18
2023-03-28T03:23:53.686Z,2.13
2023-03-28T03:24:59.280Z,2.07
2023-03-28T03:26:02.362Z,2.09
2023-03-28T03:27:05.302Z,2.20
2023-03-28T03:28:06.826Z,2.35
2023-03-28T03:29:09.276Z,2.40
2023-03-28T03:30:11.880Z,2.32
2023-03-28T03:31:14.419Z,2.31
2023-03-28T03:32:15.952Z,2.31
2023-03-28T03:33:18.580Z,2.32
2023-03-28T03:34:20.785Z,2.38
2023-03-28T03:35:23.399Z,2.42
2023-03-28T03:36:27.105Z,2.49
2023-03-28T03:37:29.603Z,2.56
2023-03-28T03:38:31.133Z,2.58
2023-03-28T03:39:33.641Z,2.69
2023-03-28T03:40:35.330Z,2.53
2023-03-28T03:41:39.230Z,2.54
2023-03-28T03:42:41.101Z,2.55
2023-03-28T03:43:45.222Z,2.56
2023-03-28T03:44:48.296Z,2.62
2023-03-28T03:45:50.844Z,2.71
2023-03-28T03:46:52.464Z,2.70
2023-03-28T03:47:55.118Z,2.73
2023-03-28T03:48:56.648Z,2.76
2023-03-28T03:49:59.144Z,2.66
2023-03-28T03:51:00.794Z,2.62
2023-03-28T03:52:03.393Z,2.60
2023-03-28T03:53:05.004Z,2.62
2023-03-28T03:54:07.516Z,2.81
2023-03-28T03:55:09.570Z,2.81
2023-03-28T03:56:12.069Z,2.82
2023-03-28T03:57:15.551Z,2.73
2023-03-28T03:58:20.382Z,2.77
2023-03-28T03:59:22.729Z,2.72
2023-03-28T04:00:25.710Z,2.60
2023-03-28T04:01:30.172Z,2.68
2023-03-28T04:02:33.028Z,2.74
2023-03-28T04:03:34.769Z,2.69
2023-03-28T04:04:40.466Z,2.60
2023-03-28T04:05:42.087Z,2.59
2023-03-28T04:06:44.650Z,2.51
2023-03-28T04:07:46.540Z,2.63
2023-03-28T04:08:49.202Z,2.63
2023-03-28T04:09:50.984Z,2.80
2023-03-28T04:10:53.506Z,2.69
2023-03-28T04:11:55.907Z,2.49
2023-03-28T04:12:59.888Z,2.42
2023-03-28T04:14:01.615Z,2.38
2023-03-28T04:15:04.546Z,2.37
2023-03-28T04:16:07.114Z,2.31
2023-03-28T04:17:09.663Z,2.15
2023-03-28T04:18:11.327Z,2.30
2023-03-28T04:19:14.401Z,2.41
2023-03-28T04:20:16.061Z,2.13
2023-03-28T04:21:19.351Z,2.26
2023-03-28T04:22:20.904Z,2.21
2023-03-28T04:23:25.803Z,2.28
2023-03-28T04:24:27.419Z,2.22
2023-03-28T04:25:31.550Z,2.26
2023-03-28T04:26:35.735Z,2.23
2023-03-28T04:27:39.460Z,2.22
2023-03-28T04:28:43.558Z,2.35
2023-03-28T04:29:46.148Z,2.31
2023-03-28T04:30:47.686Z,2.17
2023-03-28T04:31:50.696Z,2.19
2023-03-28T04:32:54.460Z,2.15
2023-03-28T04:34:00.986Z,2.16
2023-03-28T04:35:03.312Z,2.23
2023-03-28T04:36:07.984Z,2.20
2023-03-28T04:37:09.832Z,2.29
2023-03-28T04:38:20.374Z,2.14
2023-03-28T04:39:23.151Z,2.08
2023-03-28T04:40:28.015Z,2.22
2023-03-28T04:41:32.228Z,2.15
2023-03-28T04:42:35.690Z,2.18
2023-03-28T04:43:37.487Z,2.25
2023-03-28T04:44:41.347Z,2.29
2023-03-28T04:45:43.030Z,2.41
2023-03-28T04:46:46.569Z,2.34
2023-03-28T04:47:49.682Z,2.08
2023-03-28T04:48:56.530Z,2.00
2023-03-28T04:49:59.972Z,1.95
2023-03-28T04:51:01.615Z,1.98
2023-03-28T04:52:04.369Z,2.03
2023-03-28T04:53:05.964Z,2.08
2023-03-28T04:54:08.529Z,2.10
2023-03-28T04:55:10.369Z,1.99
2023-03-28T04:56:13.857Z,2.21
2023-03-28T04:57:15.711Z,2.29
2023-03-28T04:58:19.291Z,2.17
2023-03-28T04:59:21.506Z,2.20
2023-03-28T05:00:26.173Z,2.27
2023-03-28T05:01:27.813Z,2.10
2023-03-28T05:02:30.476Z,2.20
2023-03-28T05:03:32.167Z,2.25
2023-03-28T05:04:34.890Z,2.30
2023-03-28T05:05:36.416Z,2.16
2023-03-28T05:06:41.677Z,2.25
2023-03-28T05:07:43.393Z,2.19
2023-03-28T05:08:45.998Z,2.26
2023-03-28T05:09:48.708Z,2.22
2023-03-28T05:10:51.148Z,2.18
2023-03-28T05:11:53.642Z,2.26
2023-03-28T05:12:55.371Z,2.22
2023-03-28T05:13:57.930Z,2.38
2023-03-28T05:14:59.618Z,2.46
2023-03-28T05:16:03.705Z,2.46
2023-03-28T05:17:05.222Z,2.33
2023-03-28T05:18:07.787Z,2.43
2023-03-28T05:19:10.066Z,2.42
2023-03-28T05:20:13.487Z,2.27
2023-03-28T05:21:15.180Z,2.35
2023-03-28T05:22:17.936Z,2.53
2023-03-28T05:23:20.827Z,2.32
2023-03-28T05:24:22.497Z,2.48
2023-03-28T05:25:26.138Z,2.53
2023-03-28T05:26:30.198Z,2.52
2023-03-28T05:27:33.496Z,2.59
2023-03-28T05:28:36.033Z,2.54
2023-03-28T05:29:37.742Z,2.52
2023-03-28T05:30:40.311Z,2.69
2023-03-28T05:31:43.172Z,2.72
2023-03-28T05:32:46.021Z,2.83
2023-03-28T05:33:48.584Z,2.81
2023-03-28T05:34:50.118Z,2.80
2023-03-28T05:35:53.639Z,2.52
2023-03-28T05:36:59.352Z,2.51
2023-03-28T05:38:02.533Z,2.47
2023-03-28T05:39:07.992Z,2.51
2023-03-28T05:40:43.621Z,2.50
2023-03-28T05:41:45.179Z,2.35
2023-03-28T05:42:47.807Z,2.32
2023-03-28T05:43:50.337Z,2.45
2023-03-28T05:44:51.910Z,2.53
2023-03-28T05:45:54.693Z,2.49
2023-03-28T05:46:57.678Z,2.53
2023-03-28T05:48:00.278Z,2.53
2023-03-28T05:49:01.953Z,2.66
2023-03-28T05:50:05.418Z,2.80
2023-03-28T05:51:08.162Z,2.91
2023-03-28T05:52:09.884Z,3.07
2023-03-28T05:53:12.718Z,3.00
2023-03-28T05:54:14.317Z,2.98
2023-03-28T05:55:16.887Z,2.84
2023-03-28T05:56:20.706Z,2.83
2023-03-28T05:57:23.712Z,2.74
2023-03-28T05:58:25.448Z,2.80
2023-03-28T05:59:28.184Z,2.75
2023-03-28T06:00:45.061Z,2.85
2023-03-28T06:01:48.702Z,2.91
2023-03-28T06:02:54.792Z,3.11
2023-03-28T06:03:57.236Z,3.17
2023-03-28T06:05:00.220Z,3.02
2023-03-28T06:06:02.051Z,2.83
2023-03-28T06:07:05.168Z,2.81
2023-03-28T06:08:09.175Z,2.69
2023-03-28T06:09:12.155Z,2.76
2023-03-28T06:10:15.176Z,2.66
2023-03-28T06:11:19.654Z,2.75
2023-03-28T06:12:21.242Z,2.62
2023-03-28T06:13:23.942Z,2.57
2023-03-28T06:14:25.947Z,2.83
2023-03-28T06:15:28.483Z,2.74
2023-03-28T06:16:31.142Z,2.69
2023-03-28T06:17:34.150Z,2.72
2023-03-28T06:18:37.223Z,2.58
2023-03-28T06:19:39.945Z,2.57
2023-03-28T06:20:42.466Z,2.55
2023-03-28T06:21:44.142Z,2.59
2023-03-28T06:22:46.640Z,2.72
2023-03-28T06:23:51.575Z,2.69
2023-03-28T06:24:53.523Z,2.70
2023-03-28T06:25:56.205Z,2.77
2023-03-28T06:26:58.010Z,2.91
2023-03-28T06:28:00.682Z,2.99
2023-03-28T06:29:02.241Z,2.99
2023-03-28T06:30:05.703Z,3.09
2023-03-28T06:31:07.331Z,3.03
2023-03-28T06:32:09.844Z,3.10
2023-03-28T06:33:12.327Z,3.16
2023-03-28T06:34:15.379Z,3.31
2023-03-28T06:35:18.289Z,3.43
2023-03-28T06:36:20.180Z,3.65
2023-03-28T06:37:22.645Z,3.66
2023-03-28T06:38:24.312Z,3.67
2023-03-28T06:39:27.481Z,3.47
2023-03-28T06:40:30.047Z,3.66
2023-03-28T06:41:31.847Z,3.70
2023-03-28T06:42:34.478Z,3.49
2023-03-28T06:43:36.914Z,3.41
2023-03-28T06:44:38.470Z,3.32
2023-03-28T06:45:41.988Z,3.40
2023-03-28T06:46:43.577Z,3.50
2023-03-28T06:47:48.572Z,3.58
2023-03-28T06:48:50.174Z,3.65
2023-03-28T06:49:54.002Z,3.74
2023-03-28T06:50:55.596Z,3.70
2023-03-28T06:51:58.233Z,3.86
2023-03-28T06:52:59.771Z,3.99
2023-03-28T06:54:03.161Z,3.91
2023-03-28T06:55:05.555Z,4.03
2023-03-28T06:56:09.297Z,3.96
2023-03-28T06:57:11.820Z,3.78
2023-03-28T06:58:13.347Z,3.68
2023-03-28T06:59:15.813Z,3.82
2023-03-28T07:00:18.470Z,3.75
2023-03-28T07:01:21.833Z,3.70
2023-03-28T07:02:23.588Z,3.62
2023-03-28T07:03:26.750Z,3.56
2023-03-28T07:04:30.152Z,3.64
2023-03-28T07:05:42.174Z,3.81
2023-03-28T07:06:45.160Z,3.76
2023-03-28T07:07:51.014Z,3.84
2023-03-28T07:08:53.784Z,3.68
2023-03-28T07:09:55.302Z,3.73
2023-03-28T07:10:58.219Z,3.88
2023-03-28T07:12:00.759Z,3.99
2023-03-28T07:13:02.321Z,4.06
2023-03-28T07:14:04.921Z,3.99
2023-03-28T07:15:07.469Z,3.83
2023-03-28T07:16:13.568Z,3.79
2023-03-28T07:17:16.286Z,3.79
2023-03-28T07:18:18.489Z,3.89
2023-03-28T07:19:21.095Z,3.84
2023-03-28T07:20:23.817Z,3.98
2023-03-28T07:21:32.522Z,4.24
2023-03-28T07:22:35.076Z,4.23
2023-03-28T07:23:36.821Z,4.14
2023-03-28T07:24:41.028Z,4.15
2023-03-28T07:25:42.846Z,4.23
2023-03-28T07:26:46.065Z,3.98
2023-03-28T07:27:47.718Z,4.02
2023-03-28T07:28:50.226Z,4.11
2023-03-28T07:29:52.780Z,4.10
2023-03-28T07:30:55.207Z,4.24
2023-03-28T07:31:57.851Z,4.52
2023-03-28T07:33:13.019Z,4.50
2023-03-28T07:34:21.259Z,4.51
2023-03-28T07:35:22.783Z,4.62
2023-03-28T07:36:27.837Z,4.73
2023-03-28T07:37:29.427Z,4.67
2023-03-28T07:38:31.875Z,4.62
2023-03-28T07:39:34.478Z,4.62
2023-03-28T07:40:37.105Z,4.63
2023-03-28T07:41:39.781Z,4.45
2023-03-28T07:42:42.901Z,4.49
2023-03-28T07:43:45.581Z,4.62
2023-03-28T07:44:47.116Z,4.63
2023-03-28T07:45:49.746Z,4.80
2023-03-28T07:46:52.842Z,5.07
2023-03-28T07:47:54.416Z,5.15
2023-03-28T07:48:57.286Z,5.30
2023-03-28T07:49:59.930Z,5.57
2023-03-28T07:51:01.907Z,5.59
2023-03-28T07:52:06.046Z,5.57
2023-03-28T07:53:08.519Z,5.63
2023-03-28T07:54:17.452Z,5.66
2023-03-28T07:55:20.197Z,5.82
2023-03-28T07:56:21.785Z,5.85
2023-03-28T07:57:24.307Z,5.83
2023-03-28T07:58:27.106Z,5.70
2023-03-28T07:59:28.675Z,5.60
2023-03-28T08:00:31.158Z,5.68
2023-03-28T08:01:33.640Z,5.75
2023-03-28T08:02:36.247Z,5.68
2023-03-28T08:03:38.811Z,6.07
2023-03-28T08:04:44.380Z,6.16
2023-03-28T08:05:51.568Z,6.18
2023-03-28T08:06:54.483Z,6.09
2023-03-28T08:07:58.539Z,6.04
2023-03-28T08:09:01.120Z,6.15
2023-03-28T08:10:03.345Z,6.18
2023-03-28T08:11:06.738Z,6.30
2023-03-28T08:12:09.293Z,6.30
2023-03-28T08:13:10.912Z,6.11
2023-03-28T08:14:16.284Z,6.26
2023-03-28T08:15:17.983Z,6.29
2023-03-28T08:16:20.702Z,6.12
2023-03-28T08:17:22.894Z,6.33
2023-03-28T08:18:26.454Z,6.12
2023-03-28T08:19:29.226Z,6.05
2023-03-28T08:20:30.914Z,5.94
2023-03-28T08:21:35.248Z,6.08
2023-03-28T08:22:36.899Z,6.01
2023-03-28T08:23:40.874Z,6.31
2023-03-28T08:24:43.641Z,6.34
2023-03-28T08:25:46.343Z,6.44
2023-03-28T08:26:48.893Z,6.52
2023-03-28T08:27:50.480Z,6.40
2023-03-28T08:28:54.622Z,6.34
2023-03-28T08:29:56.250Z,6.47
2023-03-28T08:30:59.164Z,6.49
2023-03-28T08:32:00.885Z,6.14
2023-03-28T08:33:04.602Z,6.46
2023-03-28T08:34:07.362Z,6.58
2023-03-28T08:35:10.805Z,6.10
2023-03-28T08:36:14.959Z,6.20
2023-03-28T08:37:16.897Z,6.40
2023-03-28T08:38:19.692Z,6.61
2023-03-28T08:39:23.426Z,6.36
2023-03-28T08:40:29.098Z,6.37
2023-03-28T08:41:52.645Z,6.60
2023-03-28T08:43:07.956Z,6.42
2023-03-28T08:44:24.733Z,6.40
2023-03-28T08:45:42.907Z,6.35
2023-03-28T08:46:47.185Z,6.67
2023-03-28T08:47:55.255Z,6.47
2023-03-28T08:49:02.056Z,6.44
2023-03-28T08:50:12.968Z,6.46
2023-03-28T08:51:21.280Z,6.64
2023-03-28T08:52:23.704Z,6.61
2023-03-28T08:53:34.414Z,6.67
2023-03-28T08:54:46.112Z,6.72
2023-03-28T08:55:51.068Z,6.92
2023-03-28T08:56:56.374Z,6.83
2023-03-28T08:57:59.825Z,6.66
2023-03-28T08:59:07.509Z,6.86
2023-03-28T09:00:19.346Z,6.83
2023-03-28T09:01:23.576Z,6.89
2023-03-28T09:02:28.439Z,7.06
2023-03-28T09:03:34.259Z,7.17
2023-03-28T09:04:36.937Z,7.32
2023-03-28T09:05:46.975Z,7.20
2023-03-28T09:06:50.760Z,7.18
2023-03-28T09:07:57.010Z,7.19
2023-03-28T09:09:16.196Z,6.86
2023-03-28T09:10:29.858Z,6.72
2023-03-28T09:11:44.184Z,6.73
2023-03-28T09:13:07.077Z,6.92
2023-03-28T09:14:28.361Z,6.63
2023-03-28T09:15:45.890Z,6.83
2023-03-28T09:17:00.962Z,6.92
2023-03-28T09:18:37.082Z,7.16
2023-03-28T09:19:55.949Z,6.82
2023-03-28T09:21:05.687Z,6.57
2023-03-28T09:22:30.167Z,6.35
2023-03-28T09:24:18.336Z,6.80
2023-03-28T09:25:32.219Z,7.12
2023-03-28T09:26:36.178Z,7.10
2023-03-28T09:27:49.873Z,7.33
2023-03-28T09:28:57.591Z,6.94
2023-03-28T09:30:17.788Z,6.96
2023-03-28T09:31:27.829Z,7.23
2023-03-28T09:32:36.453Z,7.03
2023-03-28T09:33:40.883Z,6.96
2023-03-28T09:34:48.654Z,6.93
2023-03-28T09:35:51.207Z,7.12
2023-03-28T09:36:57.163Z,7.24
2023-03-28T09:38:03.819Z,7.35
2023-03-28T09:39:26.998Z,6.99
2023-03-28T09:40:32.249Z,6.94
2023-03-28T09:41:43.440Z,6.93
2023-03-28T09:42:56.857Z,6.99
2023-03-28T09:44:03.150Z,6.98
2023-03-28T09:45:16.744Z,7.06
2023-03-28T09:46:25.326Z,6.94
2023-03-28T09:47:27.327Z,6.89
2023-03-28T09:48:32.081Z,6.78
2023-03-28T09:49:33.755Z,6.85
2023-03-28T09:50:36.452Z,6.96
2023-03-28T09:51:39.049Z,6.70
2023-03-28T09:52:41.517Z,6.79
2023-03-28T09:53:44.302Z,6.70
2023-03-28T09:54:46.921Z,6.61
2023-03-28T09:56:03.576Z,6.42
2023-03-28T09:57:07.197Z,6.51
2023-03-28T09:58:11.173Z,6.54
2023-03-28T09:59:27.018Z,6.74
2023-03-28T10:00:33.814Z,7.04
2023-03-28T10:01:41.650Z,6.98
2023-03-28T10:02:43.348Z,7.10
2023-03-28T10:03:53.304Z,7.40
2023-03-28T10:04:55.312Z,7.39
2023-03-28T10:05:59.350Z,7.48
2023-03-28T10:07:19.659Z,7.64
2023-03-28T10:08:29.320Z,7.62
2023-03-28T10:09:30.871Z,7.58
2023-03-28T10:10:33.468Z,7.51
2023-03-28T10:11:49.842Z,7.54
2023-03-28T10:12:57.385Z,7.82
2023-03-28T10:14:00.047Z,7.77
2023-03-28T10:15:01.893Z,7.93
2023-03-28T10:16:06.347Z,7.94
2023-03-28T10:17:13.401Z,7.77
2023-03-28T10:18:18.490Z,7.67
2023-03-28T10:19:24.873Z,7.63
2023-03-28T10:20:28.450Z,7.88
2023-03-28T10:21:32.924Z,8.13
2023-03-28T10:22:38.412Z,8.27
2023-03-28T10:23:42.133Z,8.38
2023-03-28T10:24:47.697Z,8.39
2023-03-28T10:25:52.008Z,8.24
2023-03-28T10:26:58.816Z,8.11
2023-03-28T10:28:00.776Z,7.95
2023-03-28T10:29:07.589Z,7.88
2023-03-28T10:30:18.299Z,7.92
2023-03-28T10:31:26.343Z,7.71
2023-03-28T10:32:31.225Z,7.83
2023-03-28T10:33:35.185Z,8.12
2023-03-28T10:34:37.059Z,7.93
2023-03-28T10:35:41.532Z,8.04
2023-03-28T10:36:45.217Z,8.62
2023-03-28T10:37:48.267Z,8.40
2023-03-28T10:38:51.120Z,9.14
2023-03-28T10:40:01.092Z,10.70
2023-03-28T10:41:06.695Z,11.54
2023-03-28T10:42:11.724Z,12.60
2023-03-28T10:43:16.335Z,12.82
2023-03-28T10:44:19.831Z,12.56
2023-03-28T10:45:24.744Z,12.68
2023-03-28T10:46:31.132Z,12.50
2023-03-28T10:47:33.890Z,11.77
2023-03-28T10:48:39.184Z,11.47
2023-03-28T10:49:44.265Z,10.99
2023-03-28T10:50:50.031Z,10.49
2023-03-28T10:51:52.599Z,10.09
2023-03-28T10:53:10.633Z,9.54
2023-03-28T10:54:33.305Z,10.29
2023-03-28T10:55:40.528Z,11.43
2023-03-28T10:56:52.729Z,12.44
2023-03-28T10:58:14.878Z,12.17
2023-03-28T10:59:47.132Z,14.20
2023-03-28T11:00:59.500Z,15.78
2023-03-28T11:02:22.045Z,13.03
2023-03-28T11:03:39.164Z,11.73
2023-03-28T11:04:56.316Z,10.54
2023-03-28T11:06:09.425Z,10.20
2023-03-28T11:07:18.742Z,9.59
2023-03-28T11:08:34.834Z,10.54
2023-03-28T11:09:42.095Z,12.77
2023-03-28T11:10:57.314Z,14.18
2023-03-28T11:12:10.233Z,13.30
2023-03-28T11:13:29.517Z,12.34
2023-03-28T11:14:45.849Z,13.04
2023-03-28T11:15:59.193Z,14.01
2023-03-28T11:17:08.962Z,13.21
2023-03-28T11:18:24.813Z,12.85
2023-03-28T11:19:43.382Z,13.00
2023-03-28T11:20:55.184Z,12.75
2023-03-28T11:22:05.770Z,12.05
2023-03-28T11:23:24.530Z,11.36
2023-03-28T11:24:35.879Z,10.91
2023-03-28T11:25:45.968Z,10.69
2023-03-28T11:27:05.055Z,10.73
2023-03-28T11:28:27.523Z,10.35
2023-03-28T11:29:43.615Z,10.09
2023-03-28T11:30:51.767Z,9.65
2023-03-28T11:32:05.798Z,9.37
2023-03-28T11:33:15.680Z,9.07
2023-03-28T11:34:25.103Z,9.12
2023-03-28T11:35:32.634Z,8.95
2023-03-28T11:36:42.694Z,9.29
2023-03-28T11:37:52.244Z,11.01
2023-03-28T11:39:02.145Z,12.59
2023-03-28T11:40:12.105Z,13.35
2023-03-28T11:41:18.415Z,13.24
2023-03-28T11:42:28.477Z,13.27
2023-03-28T11:43:37.736Z,12.55
2023-03-28T11:44:43.968Z,12.25
2023-03-28T11:45:53.017Z,11.69
2023-03-28T11:46:57.783Z,10.62
2023-03-28T11:48:06.264Z,10.65
2023-03-28T11:49:18.833Z,11.86
2023-03-28T11:50:23.720Z,13.55
2023-03-28T11:51:32.028Z,15.00
2023-03-28T11:52:38.272Z,16.08
2023-03-28T11:53:45.140Z,16.90
2023-03-28T11:54:51.110Z,17.84
2023-03-28T11:56:02.687Z,17.32
2023-03-28T11:57:09.295Z,18.09
2023-03-28T11:58:18.298Z,18.71
2023-03-28T11:59:28.161Z,19.61
2023-03-28T12:00:34.785Z,19.50
2023-03-28T12:01:43.582Z,19.23
2023-03-28T12:02:52.135Z,19.35
2023-03-28T12:04:02.344Z,18.86
2023-03-28T12:05:10.995Z,17.45
2023-03-28T12:06:23.434Z,16.45
2023-03-28T12:07:33.209Z,16.05
2023-03-28T12:08:42.525Z,15.17
2023-03-28T12:09:59.862Z,14.00
2023-03-28T12:11:06.317Z,13.09
2023-03-28T12:12:12.841Z,12.67
2023-03-28T12:13:20.058Z,13.42
2023-03-28T12:14:34.687Z,14.69
2023-03-28T12:15:43.954Z,14.63
2023-03-28T12:16:49.638Z,13.88
2023-03-28T12:17:57.768Z,13.44
2023-03-28T12:19:03.316Z,14.13
2023-03-28T12:20:08.343Z,14.87
2023-03-28T12:21:16.802Z,14.92
2023-03-28T12:22:26.637Z,14.89
2023-03-28T12:23:39.494Z,14.99
2023-03-28T12:24:47.873Z,14.64
2023-03-28T12:25:58.606Z,13.72
2023-03-28T12:27:10.775Z,12.84
2023-03-28T12:28:22.126Z,12.49
2023-03-28T12:29:31.907Z,12.06
2023-03-28T12:30:40.488Z,11.73
2023-03-28T12:31:48.732Z,11.72
2023-03-28T12:32:59.551Z,11.51
2023-03-28T12:34:08.948Z,11.42
2023-03-28T12:35:15.557Z,11.08
2023-03-28T12:36:26.443Z,10.82
2023-03-28T12:37:34.244Z,11.94
2023-03-28T12:38:44.347Z,14.05
2023-03-28T12:39:54.444Z,15.49
2023-03-28T12:41:01.859Z,15.69
2023-03-28T12:42:07.732Z,14.34
2023-03-28T12:43:15.407Z,13.53
2023-03-28T12:44:22.852Z,13.05
2023-03-28T12:45:31.153Z,12.09
2023-03-28T12:46:38.125Z,11.59
2023-03-28T12:47:44.810Z,11.48
2023-03-28T12:48:52.416Z,12.50
2023-03-28T12:49:57.902Z,13.90
2023-03-28T12:51:05.564Z,15.17
2023-03-28T12:52:12.999Z,16.61
2023-03-28T12:53:17.145Z,17.26
2023-03-28T12:54:25.925Z,17.34
2023-03-28T12:55:46.540Z,16.57
2023-03-28T12:57:00.998Z,16.05
2023-03-28T12:58:19.564Z,15.02
2023-03-28T12:59:52.233Z,14.11
2023-03-28T13:01:22.242Z,13.25
2023-03-28T13:02:32.592Z,13.04
2023-03-28T13:03:44.140Z,12.81
2023-03-28T13:04:56.534Z,11.61
2023-03-28T13:06:09.561Z,11.86
2023-03-28T13:07:19.781Z,11.85
2023-03-28T13:08:28.065Z,11.64
2023-03-28T13:10:01.940Z,11.44
2023-03-28T13:11:09.375Z,11.04
2023-03-28T13:12:34.298Z,10.64
2023-03-28T13:13:50.075Z,10.64
2023-03-28T13:15:01.001Z,10.53
2023-03-28T13:16:08.113Z,9.95
2023-03-28T13:17:21.783Z,9.88
2023-03-28T13:18:31.482Z,9.88
2023-03-28T13:19:48.441Z,9.60
2023-03-28T13:20:52.029Z,9.76
2023-03-28T13:21:57.652Z,10.07
2023-03-28T13:23:04.730Z,10.51
2023-03-28T13:24:27.856Z,11.39
2023-03-28T13:25:37.015Z,12.77
2023-03-28T13:26:54.683Z,13.01
2023-03-28T13:28:00.544Z,13.17
2023-03-28T13:29:03.323Z,12.98
2023-03-28T13:30:08.452Z,12.77
2023-03-28T13:31:20.543Z,12.14
2023-03-28T13:32:24.408Z,13.45
2023-03-28T13:33:29.066Z,13.82
2023-03-28T13:34:34.116Z,13.87
2023-03-28T13:35:45.665Z,13.58
2023-03-28T13:36:51.796Z,13.24
2023-03-28T13:37:53.355Z,12.40
2023-03-28T13:39:20.493Z,12.05
2023-03-28T13:40:54.620Z,11.36
2023-03-28T13:42:00.271Z,11.44
2023-03-28T13:43:02.865Z,11.19
2023-03-28T13:44:09.669Z,11.15
2023-03-28T13:45:21.108Z,11.18
2023-03-28T13:46:28.912Z,11.06
2023-03-28T13:47:36.283Z,10.86
2023-03-28T13:48:44.712Z,10.89
2023-03-28T13:49:51.421Z,10.66
2023-03-28T13:50:53.659Z,10.20
2023-03-28T13:51:59.700Z,10.15
2023-03-28T13:53:01.709Z,10.27
2023-03-28T13:54:04.617Z,10.44
2023-03-28T13:55:18.588Z,10.61
2023-03-28T13:56:24.887Z,10.41
2023-03-28T13:57:28.263Z,10.27
2023-03-28T13:58:30.911Z,10.22
2023-03-28T13:59:36.723Z,10.30
2023-03-28T14:00:38.464Z,10.63
2023-03-28T14:01:49.454Z,10.76
2023-03-28T14:02:54.371Z,10.37
2023-03-28T14:03:56.397Z,10.15
2023-03-28T14:05:16.124Z,9.93
2023-03-28T14:06:24.225Z,9.83
2023-03-28T14:07:27.516Z,9.85
2023-03-28T14:08:30.123Z,9.86
2023-03-28T14:09:34.918Z,9.99
2023-03-28T14:10:41.416Z,9.83
2023-03-28T14:11:45.122Z,9.62
2023-03-28T14:12:46.921Z,9.34
2023-03-28T14:13:50.682Z,9.29
2023-03-28T14:14:55.890Z,9.36
2023-03-28T14:15:57.658Z,9.14
2023-03-28T14:17:05.183Z,9.17
2023-03-28T14:18:12.258Z,9.08
2023-03-28T14:19:21.185Z,9.21
2023-03-28T14:20:24.345Z,9.31
2023-03-28T14:21:26.937Z,9.38
2023-03-28T14:22:30.404Z,9.41
2023-03-28T14:23:36.008Z,9.43
2023-03-28T14:24:38.530Z,9.21
2023-03-28T14:25:40.074Z,9.15
2023-03-28T14:26:42.601Z,9.17
2023-03-28T14:27:47.914Z,9.16
2023-03-28T14:28:52.922Z,9.13
2023-03-28T14:29:57.083Z,9.11
2023-03-28T14:31:00.123Z,8.99
2023-03-28T14:32:07.663Z,9.07
2023-03-28T14:33:20.811Z,9.10
2023-03-28T14:34:24.878Z,9.11
2023-03-28T14:35:31.737Z,9.11
2023-03-28T14:36:35.771Z,9.27
2023-03-28T14:37:38.496Z,9.45
2023-03-28T14:38:41.173Z,9.63
2023-03-28T14:39:42.813Z,9.61
2023-03-28T14:40:46.576Z,9.41